Time;durP1;ratioP1;P1;durP2;ratioP2;P2;SDS_P1;SDS_P2;PMS_P1;PMS_P2;Temp;Humidity;BMP_temperature;BMP_pressure;BME280_temperature;BME280_humidity;BME280_pressure;Samples;Min_cycle;Max_cycle;Signal;HPM_P1;HPM_P2
2023/08/16 00:02:45;;;;;;;12.55;6.00;;;;;;;19.14;100.00;100892.88;4935085;29;20054;-79
2023/08/16 00:05:49;;;;;;;8.15;5.72;;;;;;;19.11;100.00;100898.44;4935169;29;20042;-79
2023/08/16 00:08:57;;;;;;;8.75;5.38;;;;;;;19.08;100.00;100893.41;4935139;29;20043;-78
2023/08/16 00:12:01;;;;;;;11.05;5.93;;;;;;;19.15;100.00;100883.97;4935027;29;20083;-78
2023/08/16 00:15:06;;;;;;;10.10;5.82;;;;;;;19.24;100.00;100893.81;4934854;29;20533;-78
2023/08/16 00:18:11;;;;;;;13.70;4.90;;;;;;;19.16;100.00;100896.25;4935329;29;20054;-78
2023/08/16 00:21:14;;;;;;;11.85;5.32;;;;;;;19.11;100.00;100893.13;4935012;29;20066;-78
2023/08/16 00:24:19;;;;;;;11.98;4.30;;;;;;;19.10;100.00;100885.31;4934104;29;20047;-78
2023/08/16 00:27:23;;;;;;;10.85;4.55;;;;;;;19.03;100.00;100885.81;4934169;29;20122;-78
2023/08/16 00:30:27;;;;;;;11.23;4.40;;;;;;;18.98;100.00;100887.16;4934119;29;20138;-78
2023/08/16 00:33:30;;;;;;;14.95;4.57;;;;;;;18.94;100.00;100885.72;4923319;29;20054;-78
2023/08/16 00:36:34;;;;;;;6.22;4.50;;;;;;;18.90;100.00;100890.44;4933974;29;20412;-78
2023/08/16 00:39:40;;;;;;;7.50;3.90;;;;;;;18.86;100.00;100882.84;4934047;29;20050;-78
2023/08/16 00:42:45;;;;;;;8.23;3.90;;;;;;;18.85;100.00;100886.47;4934189;29;20573;-78
2023/08/16 00:45:49;;;;;;;13.45;3.83;;;;;;;18.86;100.00;100882.84;4935042;29;20126;-79
2023/08/16 00:48:52;;;;;;;7.07;3.92;;;;;;;18.84;100.00;100885.66;4934841;29;20086;-78
2023/08/16 00:51:56;;;;;;;7.10;4.05;;;;;;;18.87;100.00;100871.31;4934784;29;20116;-78
2023/08/16 00:55:02;;;;;;;9.57;4.00;;;;;;;18.84;100.00;100864.44;4934762;29;20079;-79
2023/08/16 00:58:06;;;;;;;5.57;3.92;;;;;;;18.84;100.00;100869.75;4934140;29;20533;-78
2023/08/16 01:01:11;;;;;;;6.57;3.67;;;;;;;18.85;100.00;100879.38;4933660;29;20050;-78
2023/08/16 01:04:15;;;;;;;6.63;4.10;;;;;;;18.83;100.00;100875.19;4933975;29;20050;-78
2023/08/16 01:07:19;;;;;;;4.90;3.70;;;;;;;18.82;100.00;100876.97;4934526;29;20851;-79
2023/08/16 01:10:31;;;;;;;6.07;3.53;;;;;;;18.77;100.00;100874.72;4934452;29;20610;-77
2023/08/16 01:13:49;;;;;;;6.13;4.10;;;;;;;18.77;100.00;100872.06;4938116;29;20210;-78
2023/08/16 01:16:53;;;;;;;9.35;4.22;;;;;;;18.76;100.00;100874.81;4938164;29;20134;-78
2023/08/16 01:20:00;;;;;;;12.88;4.43;;;;;;;18.76;100.00;100870.38;4937184;29;20047;-78
2023/08/16 01:23:05;;;;;;;7.40;3.92;;;;;;;18.83;100.00;100873.38;4937136;29;20059;-78
2023/08/16 01:26:33;;;;;;;6.75;4.13;;;;;;;18.85;100.00;100878.53;4937112;29;20442;-77
2023/08/16 01:29:40;;;;;;;9.82;5.20;;;;;;;18.79;100.00;100886.03;4937800;29;20082;-77
2023/08/16 01:32:47;;;;;;;9.45;4.55;;;;;;;18.72;100.00;100884.81;4936817;29;20119;-77
2023/08/16 01:35:50;;;;;;;11.07;3.80;;;;;;;18.82;100.00;100882.25;4937563;29;20509;-78
2023/08/16 01:38:55;;;;;;;6.05;3.75;;;;;;;18.90;100.00;100892.25;4937598;29;20112;-78
2023/08/16 01:42:03;;;;;;;9.13;4.20;;;;;;;18.87;100.00;100892.50;4937608;29;20086;-78
2023/08/16 01:45:09;;;;;;;8.65;3.45;;;;;;;18.77;100.00;100895.91;4937504;29;20052;-79
2023/08/16 01:48:14;;;;;;;12.10;3.97;;;;;;;18.72;100.00;100907.78;4937365;29;20086;-78
2023/08/16 01:51:17;;;;;;;8.00;4.05;;;;;;;18.68;100.00;100901.06;4936537;29;20537;-79
2023/08/16 01:54:20;;;;;;;8.57;3.80;;;;;;;18.66;100.00;100902.97;4936671;29;20127;-79
2023/08/16 01:57:26;;;;;;;6.30;2.92;;;;;;;18.74;100.00;100908.56;4937365;29;20047;-79
2023/08/16 02:00:30;;;;;;;6.47;2.72;;;;;;;18.70;100.00;100899.16;4936477;29;20129;-79
2023/08/16 02:03:33;;;;;;;5.97;2.20;;;;;;;18.70;100.00;100905.28;4936484;29;20087;-78
2023/08/16 02:06:38;;;;;;;9.70;2.45;;;;;;;18.69;100.00;100898.28;4936274;29;20043;-78
2023/08/16 02:09:42;;;;;;;8.30;2.38;;;;;;;18.65;100.00;100896.84;4936287;29;20518;-79
2023/08/16 02:12:46;;;;;;;6.50;1.90;;;;;;;18.65;100.00;100906.59;4936176;29;20050;-79
2023/08/16 02:15:49;;;;;;;5.95;2.15;;;;;;;18.62;100.00;100902.38;4935990;29;20114;-79
2023/08/16 02:18:55;;;;;;;7.95;2.20;;;;;;;18.60;100.00;100906.97;4936087;29;20102;-79
2023/08/16 02:21:59;;;;;;;7.45;2.05;;;;;;;18.61;100.00;100903.38;4936195;29;20047;-78
2023/08/16 02:25:03;;;;;;;8.05;1.90;;;;;;;18.64;100.00;100905.78;4936899;29;20043;-78
2023/08/16 02:28:09;;;;;;;10.95;2.28;;;;;;;18.70;100.00;100904.44;4935907;29;20067;-78
2023/08/16 02:31:13;;;;;;;11.40;2.08;;;;;;;18.65;100.00;100902.16;4935855;29;20046;-78
2023/08/16 02:34:17;;;;;;;7.35;2.33;;;;;;;18.63;100.00;100898.78;4936646;29;20050;-78
2023/08/16 02:37:23;;;;;;;14.45;2.40;;;;;;;18.59;100.00;100892.88;4935821;29;20166;-78
2023/08/16 02:40:26;;;;;;;9.15;2.35;;;;;;;18.60;100.00;100893.72;4935838;29;20082;-78
2023/08/16 02:43:29;;;;;;;10.00;2.53;;;;;;;18.60;100.00;100888.41;4936397;29;20524;-78
2023/08/16 02:46:32;;;;;;;12.40;2.40;;;;;;;18.66;100.00;100893.22;4936298;29;20104;-78
2023/08/16 02:49:36;;;;;;;7.95;2.10;;;;;;;18.69;100.00;100890.34;4936284;29;20055;-77
2023/08/16 02:52:39;;;;;;;10.10;3.30;;;;;;;18.72;100.00;100898.06;4936361;29;20102;-78
2023/08/16 02:55:43;;;;;;;7.60;3.22;;;;;;;18.65;100.00;100894.19;4936265;29;20529;-78
2023/08/16 02:58:47;;;;;;;6.00;3.97;;;;;;;18.59;100.00;100897.34;4936262;29;20087;-78
2023/08/16 03:01:51;;;;;;;9.10;3.63;;;;;;;18.53;100.00;100895.19;4935577;29;20051;-78
2023/08/16 03:04:55;;;;;;;11.32;3.60;;;;;;;18.59;100.00;100894.69;4936353;29;20050;-78
2023/08/16 03:07:59;;;;;;;4.72;3.63;;;;;;;18.69;100.00;100892.97;4936052;29;20046;-77
2023/08/16 03:11:02;;;;;;;9.93;4.05;;;;;;;18.68;100.00;100895.78;4935419;29;20568;-78
2023/08/16 03:14:06;;;;;;;12.10;4.35;;;;;;;18.63;100.00;100892.63;4934715;29;20094;-78
2023/08/16 03:17:10;;;;;;;9.00;5.18;;;;;;;18.61;100.00;100895.41;4935128;29;20430;-78
2023/08/16 03:20:14;;;;;;;11.98;4.55;;;;;;;18.58;100.00;100893.03;4935044;29;20132;-78
2023/08/16 03:23:18;;;;;;;9.07;5.00;;;;;;;18.55;100.00;100890.63;4935797;29;20524;-78
2023/08/16 03:26:22;;;;;;;11.50;6.13;;;;;;;18.54;100.00;100894.25;4934785;29;20038;-78
2023/08/16 03:29:25;;;;;;;11.50;6.70;;;;;;;18.57;100.00;100883.41;4934900;29;20054;-77
2023/08/16 03:32:29;;;;;;;12.38;4.97;;;;;;;18.55;100.00;100875.56;4935581;29;20070;-77
2023/08/16 03:35:33;;;;;;;8.07;5.38;;;;;;;18.54;100.00;100873.06;4935342;29;20047;-77
2023/08/16 03:38:37;;;;;;;14.63;5.18;;;;;;;18.53;100.00;100888.06;4934557;29;20079;-77
2023/08/16 03:41:41;;;;;;;7.80;5.53;;;;;;;18.47;100.00;100899.16;4933333;29;20054;-77
2023/08/16 03:44:46;;;;;;;14.25;6.47;;;;;;;18.53;100.00;100887.25;4935561;29;20573;-78
2023/08/16 03:47:51;;;;;;;8.82;5.35;;;;;;;18.54;100.00;100888.94;4934429;29;20053;-78
2023/08/16 03:50:57;;;;;;;15.35;5.30;;;;;;;18.55;100.00;100895.91;4934481;29;20097;-78
2023/08/16 03:54:02;;;;;;;9.38;3.80;;;;;;;18.54;100.00;100888.94;4934612;29;20208;-78
2023/08/16 03:57:07;;;;;;;7.15;4.53;;;;;;;18.56;100.00;100877.22;4934716;29;20042;-78
2023/08/16 04:00:17;;;;;;;9.02;5.22;;;;;;;18.52;100.00;100869.69;4934436;29;20474;-78
2023/08/16 04:03:20;;;;;;;6.75;5.25;;;;;;;18.52;100.00;100881.09;4935170;29;20050;-78
2023/08/16 04:06:24;;;;;;;8.38;5.05;;;;;;;18.50;100.00;100882.19;4934636;29;20051;-78
2023/08/16 04:09:27;;;;;;;8.55;4.88;;;;;;;18.54;100.00;100886.28;4934465;29;20494;-78
2023/08/16 04:12:34;;;;;;;8.57;4.80;;;;;;;18.61;100.00;100891.94;4934380;29;20054;-78
2023/08/16 04:15:40;;;;;;;5.25;4.15;;;;;;;18.58;100.00;100890.38;4935068;29;20046;-79
2023/08/16 04:18:48;;;;;;;4.10;3.67;;;;;;;18.62;100.00;100885.66;4934115;29;20114;-80
2023/08/16 04:21:51;;;;;;;6.05;4.22;;;;;;;18.68;100.00;100891.31;4933780;29;20537;-74
2023/08/16 04:24:55;;;;;;;4.43;3.40;;;;;;;18.67;100.00;100902.88;4933226;29;20122;-77
2023/08/16 04:27:59;;;;;;;5.65;4.00;;;;;;;18.63;100.00;100905.88;4931900;29;20119;-77
2023/08/16 04:31:04;;;;;;;7.75;4.55;;;;;;;18.54;100.00;100907.47;4932187;29;20065;-76
2023/08/16 04:34:07;;;;;;;8.30;4.90;;;;;;;18.53;100.00;100908.41;4932320;29;20050;-78
2023/08/16 04:37:11;;;;;;;9.77;4.50;;;;;;;18.54;100.00;100915.41;4933271;29;20050;-84
2023/08/16 04:40:36;;;;;;;10.80;5.07;;;;;;;18.56;100.00;100914.31;4932932;29;20054;-86
2023/08/16 04:43:41;;;;;;;6.88;5.20;;;;;;;18.62;100.00;100928.88;4933715;29;20113;-85
2023/08/16 04:46:47;;;;;;;6.85;4.40;;;;;;;18.59;100.00;100924.66;4935261;29;20043;-85
2023/08/16 04:49:52;;;;;;;7.45;4.90;;;;;;;18.56;100.00;100924.06;4936033;29;20510;-85
2023/08/16 04:52:57;;;;;;;10.43;5.95;;;;;;;18.53;100.00;100926.97;4936197;29;20046;-84
2023/08/16 04:56:04;;;;;;;10.15;4.82;;;;;;;18.52;100.00;100928.78;4936566;29;20493;-84
2023/08/16 04:59:08;;;;;;;7.68;4.28;;;;;;;18.53;100.00;100938.38;4935936;29;20095;-84
2023/08/16 05:02:12;;;;;;;7.55;4.45;;;;;;;18.58;100.00;100932.75;4936908;29;20095;-86
2023/08/16 05:05:16;;;;;;;8.20;4.30;;;;;;;18.65;100.00;100928.63;4936391;29;20417;-86
2023/08/16 05:08:24;;;;;;;7.35;4.68;;;;;;;18.69;100.00;100934.53;4925861;29;20070;-85
2023/08/16 05:11:31;;;;;;;7.70;4.55;;;;;;;18.71;100.00;100933.44;4925165;29;20058;-85
2023/08/16 05:14:35;;;;;;;6.63;4.53;;;;;;;18.67;100.00;100928.53;4935496;29;20071;-71
2023/08/16 05:17:38;;;;;;;5.95;4.63;;;;;;;18.65;100.00;100925.16;4935532;29;20083;-71
2023/08/16 05:20:41;;;;;;;7.78;4.30;;;;;;;18.76;100.00;100931.31;4935537;29;20070;-71
2023/08/16 05:23:45;;;;;;;5.32;4.25;;;;;;;18.84;100.00;100927.19;4936703;29;20058;-71
2023/08/16 05:26:50;;;;;;;4.43;4.00;;;;;;;18.87;100.00;100922.50;4936082;29;20098;-72
2023/08/16 05:29:54;;;;;;;5.93;5.30;;;;;;;18.71;100.00;100925.50;4936385;29;20054;-71
2023/08/16 05:32:57;;;;;;;5.80;5.00;;;;;;;18.65;100.00;100939.22;4936435;29;20458;-71
2023/08/16 05:36:00;;;;;;;5.25;4.55;;;;;;;18.67;100.00;100941.78;4936015;29;20107;-71
2023/08/16 05:39:04;;;;;;;6.60;4.50;;;;;;;18.78;100.00;100933.81;4936076;29;20097;-69
2023/08/16 05:42:07;;;;;;;6.57;4.30;;;;;;;18.88;100.00;100913.56;4935976;29;20098;-72
2023/08/16 05:45:10;;;;;;;8.85;5.22;;;;;;;18.96;100.00;100915.59;4936300;29;20070;-72
2023/08/16 05:48:14;;;;;;;6.38;5.45;;;;;;;19.01;100.00;100908.09;4935616;29;20203;-72
2023/08/16 05:51:17;;;;;;;5.70;5.20;;;;;;;19.03;100.00;100916.78;4936296;29;20370;-71
2023/08/16 05:54:21;;;;;;;10.70;5.72;;;;;;;18.93;100.00;100915.84;4936150;29;20050;-71
2023/08/16 05:57:25;;;;;;;6.72;5.75;;;;;;;18.96;100.00;100928.88;4935035;29;20449;-71
2023/08/16 06:00:30;;;;;;;5.90;5.30;;;;;;;19.09;100.00;100941.97;4935638;29;20098;-72
2023/08/16 06:03:34;;;;;;;6.90;4.90;;;;;;;19.14;100.00;100948.53;4935848;29;20050;-70
2023/08/16 06:06:37;;;;;;;6.65;5.10;;;;;;;19.11;100.00;100950.59;4935015;29;20069;-80
2023/08/16 06:09:40;;;;;;;6.90;4.38;;;;;;;19.15;100.00;100944.09;4935619;29;20134;-74
2023/08/16 06:12:44;;;;;;;7.35;4.78;;;;;;;19.16;100.00;100951.09;4935640;29;20102;-74
2023/08/16 06:15:55;;;;;;;5.13;4.63;;;;;;;19.15;100.00;100937.00;4913289;29;20099;-74
2023/08/16 06:18:59;;;;;;;6.43;4.72;;;;;;;19.19;100.00;100933.13;4935539;29;20055;-75
2023/08/16 06:22:02;;;;;;;6.80;4.68;;;;;;;19.20;100.00;100939.25;4935424;29;20135;-75
2023/08/16 06:25:07;;;;;;;7.75;5.93;;;;;;;19.24;100.00;100940.69;4934686;29;20051;-74
2023/08/16 06:28:10;;;;;;;5.78;5.03;;;;;;;19.23;100.00;100942.50;4933959;29;20091;-73
2023/08/16 06:31:14;;;;;;;6.13;5.50;;;;;;;19.19;100.00;100935.78;4934871;29;20118;-72
2023/08/16 06:34:17;;;;;;;10.60;6.00;;;;;;;19.16;100.00;100933.38;4934343;29;20106;-73
2023/08/16 06:37:26;;;;;;;7.68;5.75;;;;;;;19.19;100.00;100940.22;4934477;29;20276;-74
2023/08/16 06:40:32;;;;;;;8.68;6.32;;;;;;;19.23;100.00;100942.50;4934237;29;20421;-74
2023/08/16 06:43:35;;;;;;;5.55;4.80;;;;;;;19.32;100.00;100938.25;4934016;29;20066;-74
2023/08/16 06:46:38;;;;;;;6.68;5.53;;;;;;;19.35;100.00;100929.22;4934217;29;20054;-74
2023/08/16 06:49:42;;;;;;;9.15;5.95;;;;;;;19.39;100.00;100935.94;4934820;29;20503;-72
2023/08/16 06:52:45;;;;;;;6.85;6.15;;;;;;;19.40;100.00;100932.31;4934902;29;20055;-71
2023/08/16 08:56:36;;;;;;;5.10;3.42;;;;;;;20.46;100.00;100990.59;4679433;23;20048;-81
2023/08/16 08:59:45;;;;;;;4.85;3.42;;;;;;;20.48;100.00;101001.06;4933610;29;20422;-80
2023/08/16 09:03:06;;;;;;;5.05;4.35;;;;;;;20.51;100.00;101006.09;4921595;29;20073;-87
2023/08/16 09:06:18;;;;;;;4.78;4.07;;;;;;;20.50;100.00;101013.25;4933491;29;20611;-82
2023/08/16 09:19:15;;;;;;;5.72;4.53;;;;;;;20.97;100.00;101002.97;4898179;29;20059;-80
2023/08/16 09:22:18;;;;;;;6.38;4.35;;;;;;;21.22;100.00;101001.63;4913285;29;20423;-81
2023/08/16 09:25:35;;;;;;;6.30;4.07;;;;;;;21.43;100.00;100987.38;4914487;29;20094;-80
2023/08/16 09:28:39;;;;;;;5.00;3.63;;;;;;;21.58;100.00;100992.16;4902169;29;20098;-84
2023/08/16 09:31:45;;;;;;;6.25;3.40;;;;;;;21.73;100.00;100995.25;4915255;29;20562;-84
2023/08/16 09:34:53;;;;;;;3.20;2.53;;;;;;;21.76;100.00;101007.41;4917588;29;20059;-84
2023/08/16 09:37:59;;;;;;;5.95;3.15;;;;;;;21.82;99.77;100993.53;4916046;29;20537;-85
2023/08/16 09:41:11;;;;;;;4.97;2.83;;;;;;;21.84;99.71;100991.56;4915797;29;20059;-82
2023/08/16 09:44:15;;;;;;;3.70;2.33;;;;;;;21.81;98.16;100983.88;4916209;29;20047;-85
2023/08/16 09:47:32;;;;;;;5.90;2.33;;;;;;;21.81;98.69;100989.19;4915908;29;20359;-84
2023/08/16 09:50:50;;;;;;;4.55;2.53;;;;;;;21.82;100.00;100988.22;4915354;29;20055;-85
2023/08/16 09:54:02;;;;;;;4.72;2.47;;;;;;;21.91;99.57;100991.84;4917425;29;20164;-86
2023/08/16 09:57:32;;;;;;;2.75;1.90;;;;;;;21.98;100.00;100988.47;4917307;29;20099;-87
2023/08/16 10:01:01;;;;;;;3.00;1.92;;;;;;;22.14;99.78;100989.69;4917690;29;20051;-87
2023/08/16 10:13:57;;;;;;;7.53;3.33;;;;;;;22.41;94.99;100965.81;4917108;29;20085;-82
2023/08/16 10:17:09;;;;;;;7.40;3.08;;;;;;;22.40;94.64;100966.81;4917265;29;20066;-82
2023/08/16 10:20:32;;;;;;;5.50;2.63;;;;;;;22.30;93.22;100958.00;4917055;29;20047;-76
2023/08/16 10:23:40;;;;;;;4.68;2.70;;;;;;;22.32;94.83;100957.84;4916799;29;20410;-83
2023/08/16 10:26:47;;;;;;;3.60;2.30;;;;;;;22.37;95.29;100958.28;4916992;29;20433;-83
2023/08/16 10:30:44;;;;;;;3.92;2.38;;;;;;;22.42;96.71;100951.50;4905510;29;20043;-86
2023/08/16 10:33:52;;;;;;;5.43;2.47;;;;;;;22.49;95.29;100960.59;4916503;29;20167;-85
2023/08/16 10:36:58;;;;;;;5.07;2.38;;;;;;;22.52;93.70;100959.44;4916707;29;20095;-83
2023/08/16 10:40:03;;;;;;;7.07;2.53;;;;;;;22.59;94.01;100960.56;4916601;29;20051;-78
2023/08/16 10:43:10;;;;;;;3.45;2.20;;;;;;;22.74;94.38;100955.56;4915943;29;20108;-80
2023/08/16 10:59:49;;;;;;;6.63;2.72;;;;;;;23.18;91.77;100929.06;4917939;29;20051;-85
2023/08/16 11:02:55;;;;;;;3.38;2.20;;;;;;;23.20;92.26;100925.25;4905815;29;20108;-81
2023/08/16 11:06:40;;;;;;;3.42;1.95;;;;;;;23.31;90.72;100929.50;4916653;29;20128;-81
2023/08/16 11:09:45;;;;;;;3.78;2.40;;;;;;;23.39;89.79;100921.59;4916004;29;20509;-79
2023/08/16 11:13:15;;;;;;;5.10;2.10;;;;;;;23.44;89.47;100913.94;4916478;29;20180;-81
2023/08/16 11:16:20;;;;;;;3.45;1.95;;;;;;;23.50;91.84;100914.31;4915879;29;20119;-83
2023/08/16 11:19:27;;;;;;;5.28;2.40;;;;;;;23.55;90.59;100910.22;4916016;29;20129;-77
2023/08/16 11:22:30;;;;;;;4.43;2.78;;;;;;;23.54;90.29;100913.03;4916191;29;20039;-75
2023/08/16 11:25:34;;;;;;;4.78;2.40;;;;;;;23.57;92.24;100910.88;4915749;29;20102;-73
2023/08/16 11:28:40;;;;;;;3.65;2.72;;;;;;;23.60;87.80;100907.06;4915640;29;20576;-72
2023/08/16 11:31:44;;;;;;;4.57;2.95;;;;;;;23.76;88.75;100906.38;4915624;29;20092;-76
2023/08/16 11:34:48;;;;;;;4.22;2.60;;;;;;;23.96;87.50;100902.47;4914513;29;20132;-75
2023/08/16 11:37:55;;;;;;;5.28;2.30;;;;;;;24.06;85.53;100902.41;4915527;29;20043;-77
2023/08/16 11:40:59;;;;;;;3.40;2.30;;;;;;;24.16;84.22;100903.13;4915528;29;20047;-75
2023/08/16 11:44:03;;;;;;;6.30;3.08;;;;;;;24.19;83.97;100900.13;4915604;29;20050;-73
2023/08/16 11:47:10;;;;;;;4.75;2.00;;;;;;;24.24;81.62;100900.47;4915178;29;20117;-76
2023/08/16 11:50:14;;;;;;;4.20;1.90;;;;;;;24.38;80.05;100907.06;4915214;29;20569;-73
2023/08/16 11:53:19;;;;;;;6.18;2.20;;;;;;;24.45;78.03;100896.59;4915104;29;20111;-74
2023/08/16 11:56:28;;;;;;;5.45;1.95;;;;;;;24.62;78.56;100898.31;4914199;29;20059;-74
2023/08/16 11:59:37;;;;;;;3.13;1.70;;;;;;;24.85;78.84;100897.69;4892907;29;20182;-72
2023/08/16 12:02:44;;;;;;;3.28;1.75;;;;;;;24.92;77.15;100898.69;4914943;29;20462;-75
2023/08/16 12:05:51;;;;;;;2.60;1.70;;;;;;;25.03;74.45;100890.38;4915088;29;20170;-74
2023/08/16 12:09:02;;;;;;;3.35;1.80;;;;;;;25.16;75.18;100890.75;4914914;29;20055;-80
2023/08/16 12:12:10;;;;;;;3.38;2.17;;;;;;;25.22;74.85;100889.25;4914714;29;20117;-79
2023/08/16 12:15:13;;;;;;;3.05;1.58;;;;;;;25.05;73.06;100877.69;4915192;29;20419;-72
2023/08/16 12:18:18;;;;;;;3.15;2.00;;;;;;;24.97;73.84;100864.28;4914918;29;20140;-71
2023/08/16 12:21:22;;;;;;;3.90;1.73;;;;;;;25.02;74.97;100861.94;4914944;29;20109;-72
2023/08/16 12:24:26;;;;;;;3.25;1.40;;;;;;;25.10;73.88;100869.13;4914663;29;20051;-73
2023/08/16 12:27:29;;;;;;;3.17;1.92;;;;;;;25.16;71.84;100869.34;4914711;29;20509;-72
2023/08/16 12:30:33;;;;;;;4.78;2.17;;;;;;;25.29;72.18;100858.97;4902913;29;20144;-75
2023/08/16 12:33:37;;;;;;;5.30;1.50;;;;;;;25.31;71.73;100856.13;4914717;29;20488;-75
2023/08/16 12:36:41;;;;;;;3.35;1.80;;;;;;;25.42;70.89;100847.75;4914806;29;20486;-80
2023/08/16 12:39:54;;;;;;;5.30;1.70;;;;;;;25.57;69.28;100855.94;4914910;29;20054;-82
2023/08/16 12:43:00;;;;;;;4.97;1.80;;;;;;;25.68;66.29;100842.16;4914486;29;20128;-79
2023/08/16 12:46:06;;;;;;;6.05;2.15;;;;;;;25.90;65.95;100839.81;4914851;29;20071;-78
2023/08/16 12:49:36;;;;;;;2.72;1.65;;;;;;;26.17;62.50;100820.63;4914902;29;20051;-80
2023/08/16 12:52:39;;;;;;;5.65;2.45;;;;;;;26.39;63.97;100828.88;4902334;29;20448;-82
2023/08/16 12:55:43;;;;;;;3.80;1.55;;;;;;;26.65;63.38;100821.38;4914312;29;20063;-82
2023/08/16 12:58:47;;;;;;;3.55;1.70;;;;;;;26.96;62.76;100823.16;4914815;29;20098;-81
2023/08/16 13:01:52;;;;;;;9.27;2.50;;;;;;;27.18;62.51;100818.78;4914561;29;20046;-80
2023/08/16 13:04:55;;;;;;;4.80;1.80;;;;;;;27.20;61.51;100819.47;4914734;29;20519;-81
2023/08/16 13:07:59;;;;;;;4.10;2.00;;;;;;;27.44;61.66;100817.53;4916688;29;20051;-80
2023/08/16 13:11:02;;;;;;;6.18;2.25;;;;;;;27.52;60.52;100812.94;4917664;29;20074;-75
2023/08/16 13:14:09;;;;;;;3.47;1.77;;;;;;;27.53;59.45;100811.06;4918093;29;20055;-79
2023/08/16 13:17:16;;;;;;;3.47;2.05;;;;;;;27.65;59.85;100816.84;4917541;29;20051;-80
2023/08/16 13:20:23;;;;;;;5.57;2.15;;;;;;;27.94;59.38;100814.16;4917786;29;20463;-81
2023/08/16 13:23:31;;;;;;;5.18;1.70;;;;;;;28.06;57.61;100811.84;4905851;29;20433;-81
2023/08/16 13:26:45;;;;;;;3.40;2.05;;;;;;;27.87;59.04;100807.88;4906499;29;20067;-78
2023/08/16 13:29:49;;;;;;;5.75;1.85;;;;;;;27.88;59.58;100809.53;4904892;29;20066;-78
2023/08/16 13:32:55;;;;;;;4.45;2.13;;;;;;;27.78;59.44;100809.00;4916007;29;20043;-80
2023/08/16 13:36:02;;;;;;;3.80;2.05;;;;;;;27.98;60.33;100804.72;4916860;29;20050;-80
2023/08/16 13:39:09;;;;;;;2.65;1.40;;;;;;;28.21;58.04;100809.97;4918660;29;20051;-79
2023/08/16 13:42:15;;;;;;;2.35;1.40;;;;;;;28.33;56.72;100812.97;4917855;29;20672;-82
2023/08/16 13:45:44;;;;;;;4.68;1.77;;;;;;;28.73;55.84;100802.69;4917431;29;20133;-79
2023/08/16 13:48:48;;;;;;;2.92;1.98;;;;;;;29.03;55.82;100798.00;4917594;29;20099;-77
2023/08/16 13:51:53;;;;;;;2.65;1.77;;;;;;;29.50;55.50;100795.66;4917240;29;20046;-77
2023/08/16 13:54:57;;;;;;;4.90;1.77;;;;;;;29.93;53.69;100792.78;4905761;29;20075;-79
2023/08/16 13:58:03;;;;;;;2.00;1.30;;;;;;;30.59;50.82;100790.31;4917212;29;20541;-81
2023/08/16 14:01:06;;;;;;;2.60;1.52;;;;;;;30.66;51.24;100784.94;4917569;29;20195;-79
2023/08/16 14:04:12;;;;;;;3.10;1.90;;;;;;;31.35;50.45;100776.47;4917174;29;20050;-75
2023/08/16 14:07:18;;;;;;;4.18;1.58;;;;;;;32.49;46.03;100771.47;4916952;29;20119;-74
2023/08/16 14:10:21;;;;;;;3.50;2.00;;;;;;;33.81;44.33;100766.72;4917256;29;20051;-74
2023/08/16 14:13:29;;;;;;;3.17;1.48;;;;;;;36.36;38.21;100752.06;4916962;29;20047;-74
2023/08/16 14:16:33;;;;;;;3.47;1.58;;;;;;;38.17;35.46;100750.56;4913803;29;20410;-75
2023/08/16 14:19:49;;;;;;;3.25;1.63;;;;;;;39.38;32.98;100740.84;4884361;29;20055;-78
2023/08/16 14:22:52;;;;;;;2.78;1.30;;;;;;;39.37;31.79;100736.44;4915359;29;20139;-76
2023/08/16 14:25:59;;;;;;;3.47;1.20;;;;;;;39.77;30.52;100718.56;4913240;29;20118;-75
2023/08/16 14:29:06;;;;;;;2.58;1.33;;;;;;;39.60;31.39;100734.34;4915585;29;20055;-78
2023/08/16 14:32:11;;;;;;;2.65;1.23;;;;;;;40.01;30.49;100724.34;4915925;29;20043;-77
2023/08/16 14:35:17;;;;;;;4.05;1.45;;;;;;;39.20;32.06;100730.34;4916330;29;20047;-79
2023/08/16 14:38:24;;;;;;;6.03;1.60;;;;;;;39.29;32.18;100724.13;4905100;29;20047;-80
2023/08/16 14:41:31;;;;;;;6.75;1.60;;;;;;;38.62;32.76;100727.47;4916636;29;20094;-78
2023/08/16 14:44:37;;;;;;;3.30;1.45;;;;;;;38.43;33.70;100729.78;4916438;29;20050;-79
2023/08/16 14:47:50;;;;;;;5.78;1.77;;;;;;;38.44;32.62;100717.78;4916344;29;20043;-79
2023/08/16 14:50:59;;;;;;;5.82;1.48;;;;;;;36.89;35.40;100718.09;4916558;29;20521;-78
2023/08/16 14:54:03;;;;;;;6.20;1.80;;;;;;;34.88;38.80;100726.13;4916132;29;20051;-78
2023/08/16 14:57:07;;;;;;;2.85;1.55;;;;;;;33.87;42.12;100716.97;4884447;29;20080;-77
2023/08/16 15:00:14;;;;;;;4.20;1.63;;;;;;;33.86;43.10;100728.06;4878358;29;20449;-76
2023/08/16 15:03:20;;;;;;;4.75;1.60;;;;;;;35.88;39.39;100717.94;4867037;29;20059;-77
2023/08/16 15:06:23;;;;;;;3.35;1.52;;;;;;;37.11;35.61;100721.69;4878290;29;20588;-77
2023/08/16 15:09:27;;;;;;;4.50;1.55;;;;;;;38.14;33.78;100721.84;4878815;29;20048;-74
2023/08/16 15:12:31;;;;;;;4.00;1.80;;;;;;;38.66;33.52;100719.59;4878186;29;20048;-78
2023/08/16 15:15:34;;;;;;;6.95;1.55;;;;;;;38.83;32.72;100720.25;4878704;29;20070;-79
2023/08/16 15:18:40;;;;;;;4.15;1.55;;;;;;;38.49;33.21;100708.81;4878608;29;20040;-79
2023/08/16 15:21:45;;;;;;;2.78;1.30;;;;;;;37.85;33.79;100702.16;4856265;29;20152;-85
2023/08/16 15:24:49;;;;;;;3.47;1.20;;;;;;;36.75;36.14;100703.97;4866749;29;20073;-75
2023/08/16 15:27:52;;;;;;;2.97;1.40;;;;;;;37.39;34.61;100703.50;4877130;29;20085;-76
2023/08/16 15:30:56;;;;;;;2.80;1.50;;;;;;;37.36;34.73;100702.09;4877975;29;20101;-82
2023/08/16 15:33:59;;;;;;;4.45;1.50;;;;;;;35.28;38.23;100709.09;4878136;29;20125;-81
2023/08/16 15:37:03;;;;;;;2.40;1.27;;;;;;;34.00;41.31;100708.66;4877639;29;20040;-80
2023/08/16 15:40:08;;;;;;;7.35;1.58;;;;;;;33.08;43.51;100711.41;4877752;29;20197;-72
2023/08/16 15:43:15;;;;;;;4.22;1.80;;;;;;;32.63;45.27;100706.16;4877517;29;20056;-77
2023/08/16 15:46:21;;;;;;;5.28;1.60;;;;;;;32.47;45.65;100695.91;4877874;29;20125;-76
2023/08/16 15:49:25;;;;;;;9.68;2.58;;;;;;;32.55;45.90;100676.69;4877779;29;20052;-83
2023/08/16 15:52:29;;;;;;;4.05;1.65;;;;;;;32.73;46.62;100669.66;4866248;29;20061;-78
2023/08/16 15:55:37;;;;;;;4.10;2.00;;;;;;;32.46;46.51;100672.59;4881139;29;20060;-88
2023/08/16 15:58:40;;;;;;;4.20;1.90;;;;;;;33.02;44.36;100665.44;4895899;29;20547;-75
2023/08/16 16:01:44;;;;;;;3.05;1.60;;;;;;;33.05;44.30;100657.66;4895947;29;20120;-73
2023/08/16 16:04:48;;;;;;;3.50;1.75;;;;;;;33.72;43.03;100648.75;4896487;29;20052;-76
2023/08/16 16:07:56;;;;;;;4.13;1.63;;;;;;;34.29;41.84;100651.88;4896528;29;20423;-77
2023/08/16 16:11:03;;;;;;;5.40;1.55;;;;;;;34.70;40.76;100640.13;4901318;29;20055;-79
2023/08/16 16:14:18;;;;;;;5.50;1.73;;;;;;;33.85;41.47;100635.00;4899804;29;20051;-81
2023/08/16 16:17:24;;;;;;;3.58;1.67;;;;;;;32.86;43.76;100642.44;4914272;29;20043;-80
2023/08/16 16:20:58;;;;;;;7.57;1.80;;;;;;;31.70;47.03;100643.72;4885778;29;20092;-79
2023/08/16 16:24:02;;;;;;;4.57;1.83;;;;;;;30.66;49.80;100650.81;4904853;29;20407;-80
2023/08/16 16:27:06;;;;;;;4.05;1.80;;;;;;;29.92;53.33;100657.16;4904828;29;20119;-79
2023/08/16 16:30:13;;;;;;;5.03;1.80;;;;;;;29.48;54.70;100661.13;4903902;29;20070;-79
2023/08/16 16:33:16;;;;;;;3.63;1.88;;;;;;;29.21;56.90;100660.19;4902622;29;20185;-79
2023/08/16 16:36:20;;;;;;;12.73;2.65;;;;;;;28.82;60.11;100661.59;4903726;29;20205;-79
2023/08/16 16:39:23;;;;;;;7.93;2.13;;;;;;;28.27;62.93;100679.28;4894116;29;20055;-79
2023/08/16 16:42:27;;;;;;;9.48;2.30;;;;;;;28.14;62.48;100674.63;4907283;29;20091;-80
2023/08/16 16:45:32;;;;;;;5.10;1.90;;;;;;;27.91;64.82;100685.53;4904797;29;20510;-80
2023/08/16 16:48:35;;;;;;;5.80;2.15;;;;;;;27.75;64.54;100685.75;4918348;29;20414;-76
2023/08/16 16:51:38;;;;;;;8.00;2.13;;;;;;;27.55;65.81;100674.75;4918249;29;20047;-75
2023/08/16 16:54:42;;;;;;;10.75;2.42;;;;;;;27.23;68.28;100686.72;4918367;29;20168;-76